CheckWX is a tool to help pilots better visualize weather data.  It is not intended as a substitute for an official pre-flight weather briefing.

23:25:17 UTC

LOWS METAR
Salzburg Airport
Salzburg, Austria
Current

35 mins ago

LOWS 242250Z AUTO 16012KT 9999 NSC 05/04 Q1012
Observed
Feb-24 @ 22:50 UTC
Wind
  • 160° at 12 KTS
Visibility
10,000+ meters
Flight Rules
VFR
Cloud Levels
  • Clear skies
Temperature
C / 41°F
Dewpoint
C / 39°F
Humidity
93%
Altimeter
29.88" Hg
Pressure
1011.92 hPa
Previous

1 hour ago

LOWS 242220Z AUTO 16012KT 9999 NSC 05/04 Q1012
Observed
Feb-24 @ 22:20 UTC
Wind
  • 160° at 12 KTS
Visibility
10,000+ meters
Flight Rules
VFR
Cloud Levels
  • Clear skies
Temperature
C / 41°F
Dewpoint
C / 39°F
Humidity
93%
Altimeter
29.88" Hg
Pressure
1011.92 hPa
Previous

2 hours ago

LOWS 242150Z 15011KT CAVOK 05/04 Q1012
Observed
Feb-24 @ 21:50 UTC
Wind
  • 150° at 11 KTS
Visibility
10,000+ meters
Flight Rules
VFR
Cloud Levels
  • Clear skies
Temperature
C / 41°F
Dewpoint
C / 39°F
Humidity
93%
Altimeter
29.88" Hg
Pressure
1011.92 hPa